1911 NOT_NAMED (1911082S14149)


IBTrACS version v04r00. Visit IBTrACS website for data access.
Please direct all questions to the IBTrACS Q and A forum

Storm track - Intensity - Wind Radii - Intensity Data - Source Data - All data

Summary Information

Storm ID 1911082S14149
Start Mar 22 23Z
End Mar 28 23Z
ATCF IDs
Track status Best track data.

Storm track plot

Map of storm track

Intensity plots

No Intensity information for this storm


Radial wind information

No radial wind information for this storm


Position and Intensity Table

BASIN ISO_TIME_________ NATURE LAT LON
degrees north degrees east
SP 1911-03-22 23:00:00 NR -13.80 149.30
SP 1911-03-23 00:00:00 NR -13.93 149.33
SP 03:00:00 NR -14.32 149.41
SP 06:00:00 NR -14.72 149.46
SP 09:00:00 NR -15.12 149.45
SP 11:00:00 NR -15.40 149.40
SP 12:00:00 NR -15.54 149.36
SP 15:00:00 NR -15.96 149.18
SP 18:00:00 NR -16.36 148.96
SP 21:00:00 NR -16.71 148.73
SP 23:00:00 NR -16.90 148.60
SP 1911-03-24 00:00:00 NR -16.97 148.55
SP 03:00:00 NR -17.14 148.42
SP 06:00:00 NR -17.25 148.32
SP 09:00:00 NR -17.34 148.24
SP 11:00:00 NR -17.40 148.20
SP 12:00:00 NR -17.45 148.17
SP 15:00:00 NR -17.59 148.11
SP 18:00:00 NR -17.74 148.05
SP 21:00:00 NR -17.89 148.02
SP 23:00:00 NR -18.00 148.00
SP 1911-03-25 00:00:00 NR -18.05 147.99
SP 03:00:00 NR -18.23 147.97
SP 06:00:00 NR -18.40 147.96
SP 09:00:00 NR -18.58 147.98
SP 11:00:00 NR -18.70 148.00
SP 12:00:00 NR -18.76 148.00
SP 15:00:00 NR -18.93 148.03
SP 18:00:00 NR -19.10 148.08
SP 21:00:00 NR -19.28 148.19
SP 23:00:00 NR -19.40 148.30
SP 1911-03-26 00:00:00 NR -19.47 148.37
SP 03:00:00 NR -19.68 148.61
SP 06:00:00 NR -19.88 148.92
SP 09:00:00 NR -20.08 149.26
SP 11:00:00 NR -20.20 149.50
SP 12:00:00 NR -20.25 149.61
SP 15:00:00 NR -20.40 149.95
SP 18:00:00 NR -20.52 150.32
SP 21:00:00 NR -20.63 150.71
SP 23:00:00 NR -20.70 151.00
SP 1911-03-27 00:00:00 NR -20.74 151.15
SP 03:00:00 NR -20.85 151.63
SP 06:00:00 NR -20.96 152.14
SP 09:00:00 NR -21.05 152.66
SP 11:00:00 NR -21.10 153.00
SP 12:00:00 NR -21.12 153.17
SP 15:00:00 NR -21.18 153.69
SP 18:00:00 NR -21.22 154.18
SP 21:00:00 NR -21.27 154.63
SP 23:00:00 NR -21.30 154.90
SP 1911-03-28 00:00:00 NR -21.32 155.02
SP 03:00:00 NR -21.39 155.34
SP 06:00:00 NR -21.47 155.60
SP 09:00:00 NR -21.55 155.84
SP 11:00:00 NR -21.60 156.00
SP 12:00:00 NR -21.63 156.08
SP 15:00:00 NR -21.70 156.32
SP 18:00:00 NR -21.78 156.57
SP 21:00:00 NR -21.85 156.83
SP 23:00:00 NR -21.90 157.00

Source Information

Agency Information
USA
TOKYO
CMA
HKO
NEWDELHI
REUNION
BOM
NADI
WELLINGTON
DS824
TD9636 cons_worldwide_trop_cyclone_18710101-19891231-006:Line=541
TD9635
NEUMANN
MLC

All available IBTrACS Data

SEASON BASIN SUBBASIN ISO_TIME_________ NATURE LAT LON DIST2LAND LANDFALL IFLAG USA SSHS TD9636 LAT TD9636 LON TD9636 STAGE STORM SPEED STORM DIR
Year degrees north degrees east km km 1 degrees north degrees east kts degrees
1911 SP EA 1911-03-22 23:00:00 NR -13.80 149.30 360 360 __________O___ -1 -13.80 149.30 7 8 162
1911 SP EA 1911-03-23 00:00:00 NR -13.93 149.33 371 371 __________P___ -1 -13.93 149.33 7 8 168
1911 SP EA 03:00:00 NR -14.32 149.41 412 412 __________P___ -1 -14.32 149.41 7 8 171
1911 SP EA 06:00:00 NR -14.72 149.46 445 439 __________P___ -1 -14.72 149.46 7 8 177
1911 SP EA 09:00:00 NR -15.12 149.45 439 414 __________P___ -1 -15.12 149.45 7 8 184
1911 SP EA 11:00:00 NR -15.40 149.40 414 409 __________O___ -1 -15.40 149.40 7 9 191
1911 SP EA 12:00:00 NR -15.54 149.36 409 370 __________P___ -1 -15.54 149.36 7 9 200
1911 SP EA 15:00:00 NR -15.96 149.18 365 332 __________P___ -1 -15.96 149.18 7 9 205
1911 SP EA 18:00:00 NR -16.36 148.96 328 287 __________P___ -1 -16.36 148.96 7 9 210
1911 SP EA 21:00:00 NR -16.71 148.73 287 271 __________P___ -1 -16.71 148.73 7 8 213
1911 SP EA 23:00:00 NR -16.90 148.60 271 269 __________O___ -1 -16.90 148.60 7 6 214
1911 SP EA 1911-03-24 00:00:00 NR -16.97 148.55 269 246 __________P___ -1 -16.97 148.55 7 4 215
1911 SP EA 03:00:00 NR -17.14 148.42 246 234 __________P___ -1 -17.14 148.42 7 4 218
1911 SP EA 06:00:00 NR -17.25 148.32 234 223 __________P___ -1 -17.25 148.32 7 3 221
1911 SP EA 09:00:00 NR -17.34 148.24 223 222 __________P___ -1 -17.34 148.24 7 2 218
1911 SP EA 11:00:00 NR -17.40 148.20 222 222 __________O___ -1 -17.40 148.20 7 3 210
1911 SP EA 12:00:00 NR -17.45 148.17 222 212 __________P___ -1 -17.45 148.17 7 3 205
1911 SP EA 15:00:00 NR -17.59 148.11 212 204 __________P___ -1 -17.59 148.11 7 3 201
1911 SP EA 18:00:00 NR -17.74 148.05 204 179 __________P___ -1 -17.74 148.05 7 3 195
1911 SP EA 21:00:00 NR -17.89 148.02 179 168 __________P___ -1 -17.89 148.02 7 3 193
1911 SP EA 23:00:00 NR -18.00 148.00 168 168 __________O___ -1 -18.00 148.00 7 3 0
1911 SP EA 1911-03-25 00:00:00 NR -18.05 147.99 158 148 __________P___ -1 -18.05 147.99 7 3 187
1911 SP EA 03:00:00 NR -18.23 147.97 148 128 __________P___ -1 -18.23 147.97 7 4 183
1911 SP EA 06:00:00 NR -18.40 147.96 128 109 __________P___ -1 -18.40 147.96 7 4 176
1911 SP EA 09:00:00 NR -18.58 147.98 109 100 __________P___ -1 -18.58 147.98 7 4 172
1911 SP EA 11:00:00 NR -18.70 148.00 100 100 __________O___ -1 -18.70 148.00 7 4 175
1911 SP EA 12:00:00 NR -18.76 148.00 92 84 __________P___ -1 -18.76 148.00 7 3 0
1911 SP EA 15:00:00 NR -18.93 148.03 84 76 __________P___ -1 -18.93 148.03 7 4 167
1911 SP EA 18:00:00 NR -19.10 148.08 77 69 __________P___ -1 -19.10 148.08 7 4 156
1911 SP EA 21:00:00 NR -19.28 148.19 69 67 __________P___ -1 -19.28 148.19 7 4 146
1911 SP EA 23:00:00 NR -19.40 148.30 67 56 __________O___ -1 -19.40 148.30 7 5 139
1911 SP EA 1911-03-26 00:00:00 NR -19.47 148.37 56 45 __________P___ -1 -19.47 148.37 7 6 133
1911 SP EA 03:00:00 NR -19.68 148.61 45 45 __________P___ -1 -19.68 148.61 7 7 129
1911 SP EA 06:00:00 NR -19.88 148.92 45 39 __________P___ -1 -19.88 148.92 7 7 124
1911 SP EA 09:00:00 NR -20.08 149.26 56 56 __________P___ -1 -20.08 149.26 7 8 120
1911 SP EA 11:00:00 NR -20.20 149.50 70 70 __________O___ -1 -20.20 149.50 7 7 118
1911 SP EA 12:00:00 NR -20.25 149.61 76 76 __________P___ -1 -20.25 149.61 7 7 115
1911 SP EA 15:00:00 NR -20.40 149.95 104 104 __________P___ -1 -20.40 149.95 7 7 112
1911 SP EA 18:00:00 NR -20.52 150.32 132 132 __________P___ -1 -20.52 150.32 7 8 108
1911 SP EA 21:00:00 NR -20.63 150.71 165 165 __________P___ -1 -20.63 150.71 7 8 106
1911 SP EA 23:00:00 NR -20.70 151.00 192 192 __________O___ -1 -20.70 151.00 7 8 105
1911 SP EA 1911-03-27 00:00:00 NR -20.74 151.15 196 186 __________P___ -1 -20.74 151.15 7 9 104
1911 SP EA 03:00:00 NR -20.85 151.63 191 191 __________P___ -1 -20.85 151.63 7 10 103
1911 SP EA 06:00:00 NR -20.96 152.14 213 213 __________P___ -1 -20.96 152.14 7 10 102
1911 SP EA 09:00:00 NR -21.05 152.66 258 250 __________P___ -1 -21.05 152.66 7 10 100
1911 SP EA 11:00:00 NR -21.10 153.00 275 275 __________O___ -1 -21.10 153.00 7 10 99
1911 SP EA 12:00:00 NR -21.12 153.17 293 293 __________P___ -1 -21.12 153.17 7 10 97
1911 SP EA 15:00:00 NR -21.18 153.69 332 332 __________P___ -1 -21.18 153.69 7 9 96
1911 SP EA 18:00:00 NR -21.22 154.18 379 379 __________P___ -1 -21.22 154.18 7 9 96
1911 SP EA 21:00:00 NR -21.27 154.63 413 413 __________P___ -1 -21.27 154.63 7 8 97
1911 SP EA 23:00:00 NR -21.30 154.90 424 424 __________O___ -1 -21.30 154.90 7 7 99
1911 SP EA 1911-03-28 00:00:00 NR -21.32 155.02 428 426 __________P___ -1 -21.32 155.02 7 6 103
1911 SP EA 03:00:00 NR -21.39 155.34 431 431 __________P___ -1 -21.39 155.34 7 6 105
1911 SP EA 06:00:00 NR -21.47 155.60 437 437 __________P___ -1 -21.47 155.60 7 5 108
1911 SP EA 09:00:00 NR -21.55 155.84 448 445 __________P___ -1 -21.55 155.84 7 5 110
1911 SP EA 11:00:00 NR -21.60 156.00 451 451 __________O___ -1 -21.60 156.00 7 5 110
1911 SP EA 12:00:00 NR -21.63 156.08 457 455 __________P___ -1 -21.63 156.08 7 5 109
1911 SP EA 15:00:00 NR -21.70 156.32 462 462 __________P___ -1 -21.70 156.32 7 5 108
1911 SP EA 18:00:00 NR -21.78 156.57 475 475 __________P___ -1 -21.78 156.57 7 5 108
1911 SP EA 21:00:00 NR -21.85 156.83 482 482 __________P___ -1 -21.85 156.83 7 5 107
1911 SP EA 23:00:00 NR -21.90 157.00 497 __________O___ -1 -21.90 157.00 7 5 107